Time;durP1;ratioP1;P1;durP2;ratioP2;P2;SDS_P1;SDS_P2;PMS_P1;PMS_P2;Temp;Humidity;BMP_temperature;BMP_pressure;BME280_temperature;BME280_humidity;BME280_pressure;Samples;Min_cycle;Max_cycle;Signal;HPM_P1;HPM_P2
2021/12/29 00:01:26;;;;;;;21.00;16.13;;;;;;;10.71;94.96;99729.53;5018489;28;20030;-78
2021/12/29 00:03:54;;;;;;;23.08;15.50;;;;;;;10.65;95.51;99726.25;5017742;28;20046;-78
2021/12/29 00:06:20;;;;;;;19.92;15.57;;;;;;;10.62;95.67;99715.88;5019030;28;20033;-78
2021/12/29 00:08:48;;;;;;;23.27;16.80;;;;;;;10.72;96.43;99720.00;5019707;28;20036;-78
2021/12/29 00:11:18;;;;;;;21.48;15.45;;;;;;;10.66;96.63;99702.03;5020041;28;20093;-78
2021/12/29 00:13:43;;;;;;;22.42;15.88;;;;;;;10.72;96.92;99704.09;5019068;28;20049;-77
2021/12/29 00:16:09;;;;;;;22.73;16.25;;;;;;;10.71;96.53;99696.94;5019469;28;20080;-78
2021/12/29 00:18:35;;;;;;;21.17;14.52;;;;;;;10.71;96.47;99696.94;5020073;28;20036;-78
2021/12/29 00:21:03;;;;;;;19.13;13.95;;;;;;;10.71;97.30;99679.44;5020368;28;20080;-78
2021/12/29 00:23:32;;;;;;;25.40;17.15;;;;;;;10.77;98.48;99664.03;5019102;28;20053;-78
2021/12/29 00:26:03;;;;;;;19.88;15.70;;;;;;;10.83;98.05;99662.50;5020902;28;20041;-77
2021/12/29 00:28:34;;;;;;;20.73;16.13;;;;;;;10.85;97.95;99667.69;5021125;28;20105;-78
2021/12/29 00:30:59;;;;;;;19.52;15.75;;;;;;;10.81;98.04;99656.50;5020070;28;20044;-78
2021/12/29 00:33:27;;;;;;;20.98;16.20;;;;;;;10.84;97.72;99660.53;5020563;28;20018;-77
2021/12/29 00:35:52;;;;;;;24.00;16.58;;;;;;;10.81;97.96;99655.69;5020658;28;20030;-77
2021/12/29 00:38:21;;;;;;;21.33;17.20;;;;;;;10.83;97.61;99645.81;5020572;28;20026;-78
2021/12/29 00:40:48;;;;;;;24.83;19.88;;;;;;;10.78;98.20;99637.78;5020534;28;20120;-77
2021/12/29 00:43:16;;;;;;;26.40;19.48;;;;;;;10.81;98.38;99639.00;5019333;28;20018;-78
2021/12/29 00:45:50;;;;;;;20.60;18.40;;;;;;;10.78;98.67;99651.72;5019506;28;20533;-78
2021/12/29 00:48:19;;;;;;;27.95;18.85;;;;;;;10.78;98.71;99651.72;5019515;28;20022;-78
2021/12/29 00:50:45;;;;;;;21.00;16.83;;;;;;;10.89;98.72;99661.00;5019465;28;20052;-78
2021/12/29 00:53:11;;;;;;;26.80;17.83;;;;;;;10.80;98.22;99660.47;5018708;28;20021;-78
2021/12/29 00:55:37;;;;;;;24.42;17.20;;;;;;;10.82;98.11;99654.53;5019548;28;20064;-78
2021/12/29 00:58:07;;;;;;;21.85;17.48;;;;;;;10.77;98.53;99652.88;5019800;28;20036;-77
2021/12/29 01:00:37;;;;;;;26.55;18.15;;;;;;;10.80;98.89;99660.47;5021371;28;20030;-77
2021/12/29 01:03:06;;;;;;;22.42;18.50;;;;;;;10.77;98.96;99649.31;5020623;28;20037;-78
2021/12/29 01:05:36;;;;;;;22.80;17.75;;;;;;;10.76;98.67;99654.06;5020520;28;20025;-77
2021/12/29 01:08:03;;;;;;;23.58;17.75;;;;;;;10.75;98.66;99663.56;5020162;28;20021;-78
2021/12/29 01:10:28;;;;;;;23.35;16.83;;;;;;;10.67;98.67;99657.13;5020325;28;20021;-77
2021/12/29 01:12:58;;;;;;;22.50;18.23;;;;;;;10.71;99.59;99657.19;5019947;28;20029;-77
2021/12/29 01:15:31;;;;;;;26.17;19.10;;;;;;;10.75;98.35;99655.22;5019535;28;20033;-77
2021/12/29 01:17:58;;;;;;;26.75;17.73;;;;;;;10.67;98.43;99642.41;5019878;28;20129;-76
2021/12/29 01:20:25;;;;;;;30.77;16.60;;;;;;;10.66;98.55;99643.59;5019611;28;20503;-77
2021/12/29 01:22:51;;;;;;;29.95;17.20;;;;;;;10.58;98.49;99633.53;5018499;28;20025;-78
2021/12/29 01:25:17;;;;;;;22.90;16.42;;;;;;;10.57;98.65;99620.81;5018438;28;20537;-77
2021/12/29 01:27:43;;;;;;;19.73;15.95;;;;;;;10.59;99.13;99621.22;5017757;28;20029;-77
2021/12/29 01:30:14;;;;;;;17.10;11.50;;;;;;;10.63;99.62;99613.72;5019354;28;20029;-77
2021/12/29 01:32:41;;;;;;;21.30;13.85;;;;;;;10.65;100.00;99619.72;5019329;28;20579;-77
2021/12/29 01:35:09;;;;;;;17.60;12.88;;;;;;;10.59;100.00;99605.34;5018685;28;20033;-77
2021/12/29 01:37:35;;;;;;;19.75;14.25;;;;;;;10.71;100.00;99621.81;5019408;28;20018;-78
2021/12/29 01:40:03;;;;;;;24.15;16.70;;;;;;;10.74;99.82;99617.47;5019790;28;20104;-77
2021/12/29 01:42:29;;;;;;;20.73;14.32;;;;;;;10.62;99.34;99614.91;5002364;28;20463;-78
2021/12/29 01:44:57;;;;;;;18.92;13.93;;;;;;;10.67;100.00;99628.50;5019191;28;20025;-78
2021/12/29 01:47:31;;;;;;;21.75;17.23;;;;;;;10.63;100.00;99625.66;5017729;28;20484;-78
2021/12/29 01:50:00;;;;;;;28.02;17.40;;;;;;;10.66;100.00;99622.13;5018339;28;20345;-77
2021/12/29 01:52:30;;;;;;;16.63;12.45;;;;;;;10.84;100.00;99602.88;5018941;28;20025;-77
2021/12/29 01:54:55;;;;;;;19.80;14.35;;;;;;;10.84;100.00;99594.53;5017992;28;20041;-77
2021/12/29 01:57:22;;;;;;;22.33;15.55;;;;;;;10.87;100.00;99591.00;5018267;28;20101;-78
2021/12/29 01:59:48;;;;;;;20.88;14.38;;;;;;;10.85;100.00;99592.56;5016862;28;20104;-77
2021/12/29 02:02:14;;;;;;;16.63;14.15;;;;;;;10.77;99.68;99608.38;5016398;28;20123;-78
2021/12/29 02:04:42;;;;;;;19.17;14.10;;;;;;;10.69;99.60;99610.25;5016733;28;20053;-77
2021/12/29 02:07:08;;;;;;;22.50;13.68;;;;;;;10.65;99.84;99605.81;5000490;28;20049;-78
2021/12/29 02:09:43;;;;;;;18.67;13.65;;;;;;;10.52;100.00;99599.69;5017672;28;20523;-78
2021/12/29 02:12:10;;;;;;;20.25;13.18;;;;;;;10.56;100.00;99608.88;5017509;28;20064;-78
2021/12/29 02:14:35;;;;;;;16.35;12.23;;;;;;;10.51;100.00;99591.72;5017809;28;20361;-78
2021/12/29 02:17:02;;;;;;;14.32;11.77;;;;;;;10.51;100.00;99586.97;5017162;28;20030;-77
2021/12/29 02:19:27;;;;;;;16.08;13.43;;;;;;;10.57;100.00;99579.09;5016998;28;20647;-77
2021/12/29 02:22:05;;;;;;;17.17;12.73;;;;;;;10.54;100.00;99590.94;5016416;28;20034;-77
2021/12/29 02:24:37;;;;;;;17.88;13.43;;;;;;;10.46;100.00;99590.88;5018350;28;20021;-77
2021/12/29 02:27:04;;;;;;;16.08;12.82;;;;;;;10.46;100.00;99582.53;5019161;28;20029;-78
2021/12/29 02:29:32;;;;;;;20.25;12.40;;;;;;;10.54;100.00;99602.06;5017909;28;20113;-78
2021/12/29 02:32:00;;;;;;;17.70;12.45;;;;;;;10.55;100.00;99606.50;5016861;28;20037;-77
2021/12/29 02:34:26;;;;;;;17.05;11.98;;;;;;;10.45;100.00;99592.06;5018769;28;20022;-77
2021/12/29 02:36:54;;;;;;;17.52;12.75;;;;;;;10.44;100.00;99575.75;5017773;28;20040;-78
2021/12/29 02:39:21;;;;;;;13.60;11.18;;;;;;;10.56;100.00;99583.84;5016729;28;20603;-78
2021/12/29 02:41:53;;;;;;;20.08;12.27;;;;;;;10.57;100.00;99579.09;5018092;28;20522;-77
2021/12/29 02:44:29;;;;;;;15.77;11.40;;;;;;;10.59;100.00;99598.97;5017125;28;20021;-78
2021/12/29 02:46:59;;;;;;;15.73;10.95;;;;;;;10.59;100.00;99590.63;5017750;28;20024;-78
2021/12/29 02:49:31;;;;;;;13.45;10.70;;;;;;;10.61;100.00;99575.19;5017845;28;20056;-77
2021/12/29 02:51:57;;;;;;;14.27;9.90;;;;;;;10.63;100.00;99567.25;5017901;28;20033;-77
2021/12/29 02:54:22;;;;;;;21.45;13.52;;;;;;;10.62;100.00;99570.41;5016976;28;20364;-77
2021/12/29 02:56:55;;;;;;;25.30;15.15;;;;;;;10.59;100.00;99571.16;5018772;28;20052;-77
2021/12/29 02:59:43;;;;;;;21.33;13.77;;;;;;;10.61;100.00;99568.81;5018217;28;20026;-77
2021/12/29 03:02:08;;;;;;;18.67;13.07;;;;;;;10.62;100.00;99575.97;5017072;28;20038;-77
2021/12/29 03:04:34;;;;;;;22.05;14.25;;;;;;;10.69;100.00;99556.56;5016752;28;20022;-78
2021/12/29 03:07:00;;;;;;;20.88;13.65;;;;;;;10.69;100.00;99562.13;5016401;28;20030;-78
2021/12/29 03:09:26;;;;;;;19.33;13.48;;;;;;;10.63;100.00;99558.09;5016767;28;20022;-77
2021/12/29 03:11:52;;;;;;;15.15;12.82;;;;;;;10.64;100.00;99554.94;5016916;28;20053;-78
2021/12/29 03:14:18;;;;;;;16.98;13.38;;;;;;;10.62;100.00;99543.38;5017238;28;20037;-77
2021/12/29 03:16:44;;;;;;;16.05;11.60;;;;;;;10.57;100.00;99537.34;5016667;28;20037;-77
2021/12/29 03:19:10;;;;;;;23.00;16.83;;;;;;;10.59;100.00;99548.91;5016750;28;20400;-77
2021/12/29 03:21:38;;;;;;;21.20;15.65;;;;;;;10.64;100.00;99551.34;5016509;28;20034;-77
2021/12/29 03:24:08;;;;;;;24.42;16.05;;;;;;;10.67;100.00;99561.72;5017110;28;20052;-77
2021/12/29 03:26:34;;;;;;;20.00;12.90;;;;;;;10.66;100.00;99554.56;5016495;28;20056;-77
2021/12/29 03:29:00;;;;;;;16.55;12.55;;;;;;;10.68;100.00;99553.00;5016963;28;20131;-77
2021/12/29 03:31:30;;;;;;;15.85;11.95;;;;;;;10.64;100.00;99549.38;5017870;28;20026;-77
2021/12/29 03:33:57;;;;;;;13.57;10.50;;;;;;;10.72;100.00;99551.06;5017420;28;20357;-78
2021/12/29 03:36:25;;;;;;;13.40;10.85;;;;;;;10.68;100.00;99546.63;5017136;28;20037;-77
2021/12/29 03:38:51;;;;;;;16.10;12.05;;;;;;;10.66;100.00;99549.00;5017624;28;20472;-77
2021/12/29 03:41:19;;;;;;;17.15;10.60;;;;;;;10.71;100.00;99548.66;5017433;28;20022;-78
2021/12/29 03:43:45;;;;;;;18.80;12.95;;;;;;;10.66;100.00;99543.44;5018095;28;20079;-77
2021/12/29 03:46:16;;;;;;;18.27;13.10;;;;;;;10.66;100.00;99540.66;5018553;28;20025;-77
2021/12/29 03:48:44;;;;;;;16.15;11.45;;;;;;;10.69;100.00;99546.25;5018140;28;20018;-78
2021/12/29 03:51:15;;;;;;;19.35;13.48;;;;;;;10.61;100.00;99541.00;5018489;28;20377;-78
2021/12/29 03:53:49;;;;;;;27.10;14.90;;;;;;;10.68;100.00;99543.84;5016489;28;20036;-78
2021/12/29 03:56:15;;;;;;;15.05;12.25;;;;;;;10.71;100.00;99534.75;5017232;28;20088;-77
2021/12/29 03:58:43;;;;;;;20.45;13.23;;;;;;;10.59;100.00;99512.72;5018920;28;20018;-77
2021/12/29 04:01:16;;;;;;;17.50;12.30;;;;;;;10.71;100.00;99529.19;5017024;28;20030;-78
2021/12/29 04:03:42;;;;;;;16.75;12.35;;;;;;;10.71;100.00;99531.97;5018267;28;20057;-77
2021/12/29 04:06:08;;;;;;;15.32;12.82;;;;;;;10.67;100.00;99534.72;5016225;28;20033;-78
2021/12/29 04:08:33;;;;;;;19.13;11.90;;;;;;;10.68;100.00;99527.16;5016356;28;20457;-77
2021/12/29 04:10:59;;;;;;;20.42;15.48;;;;;;;10.62;100.00;99523.91;5016047;28;20026;-77
2021/12/29 04:13:25;;;;;;;23.42;14.93;;;;;;;10.55;100.00;99515.50;5016347;28;20119;-77
2021/12/29 04:15:51;;;;;;;21.45;13.75;;;;;;;10.62;100.00;99526.69;5015728;28;20112;-77
2021/12/29 04:18:26;;;;;;;21.67;13.38;;;;;;;10.65;100.00;99531.50;5016149;28;20029;-77
2021/12/29 04:20:59;;;;;;;15.95;13.38;;;;;;;10.66;100.00;99533.13;5015530;28;20427;-76
2021/12/29 04:23:29;;;;;;;16.52;11.98;;;;;;;10.67;100.00;99522.78;5016060;28;20116;-77
2021/12/29 04:25:56;;;;;;;17.23;10.88;;;;;;;10.66;100.00;99526.75;5015395;28;20057;-76
2021/12/29 04:28:25;;;;;;;16.35;11.30;;;;;;;10.70;100.00;99516.44;5017894;28;20041;-78
2021/12/29 04:30:54;;;;;;;19.75;11.38;;;;;;;10.73;100.00;99510.13;5019512;28;20018;-78
2021/12/29 04:33:24;;;;;;;12.73;11.13;;;;;;;10.67;100.00;99501.31;5021329;28;20029;-78
2021/12/29 04:35:50;;;;;;;16.70;10.68;;;;;;;10.75;100.00;99493.84;5021127;28;20029;-77
2021/12/29 04:38:16;;;;;;;12.63;9.73;;;;;;;10.76;100.00;99509.38;5019842;28;20057;-77
2021/12/29 04:40:45;;;;;;;15.50;10.10;;;;;;;10.76;100.00;99517.72;5020028;28;20044;-76
2021/12/29 04:43:19;;;;;;;15.20;10.88;;;;;;;10.75;100.00;99519.69;5004435;28;20037;-77
2021/12/29 04:45:46;;;;;;;21.35;15.10;;;;;;;10.77;100.00;99516.53;5019684;28;20037;-75
2021/12/29 04:48:13;;;;;;;25.88;17.45;;;;;;;10.72;100.00;99506.53;5019523;28;20473;-76
2021/12/29 04:50:50;;;;;;;28.70;20.00;;;;;;;10.80;100.00;99514.97;5022366;28;20026;-78
2021/12/29 04:53:17;;;;;;;19.00;14.10;;;;;;;10.68;100.00;99507.69;5021628;28;20022;-77
2021/12/29 04:55:45;;;;;;;23.52;13.13;;;;;;;10.79;100.00;99514.16;5022699;28;20045;-78
2021/12/29 04:58:12;;;;;;;16.35;10.70;;;;;;;10.91;100.00;99516.69;5022941;28;20033;-77
2021/12/29 05:00:38;;;;;;;14.57;10.07;;;;;;;10.78;100.00;99515.34;5007769;28;20109;-78
2021/12/29 05:03:05;;;;;;;14.77;10.05;;;;;;;10.75;100.00;99510.53;5007252;28;20053;-79
2021/12/29 05:10:43;;;;;;;15.73;10.32;;;;;;;10.71;100.00;99501.38;5026115;28;20084;-78
2021/12/29 05:13:11;;;;;;;19.05;11.88;;;;;;;10.85;100.00;99520.19;5008304;28;20033;-76
2021/12/29 05:15:37;;;;;;;13.02;9.43;;;;;;;10.75;100.00;99519.69;5024848;28;20022;-78
2021/12/29 05:18:03;;;;;;;15.77;9.85;;;;;;;10.69;100.00;99503.72;5025405;28;20061;-78
2021/12/29 05:20:30;;;;;;;17.35;9.32;;;;;;;10.72;100.00;99514.91;5024503;28;20511;-78
2021/12/29 05:22:58;;;;;;;20.42;10.52;;;;;;;10.67;100.00;99515.22;5024880;28;20022;-77
2021/12/29 05:25:27;;;;;;;16.80;9.15;;;;;;;10.68;100.00;99516.03;5025538;28;20048;-76
2021/12/29 05:27:53;;;;;;;14.48;9.30;;;;;;;10.77;100.00;99515.75;5024783;28;20033;-78
2021/12/29 05:30:19;;;;;;;18.02;9.73;;;;;;;10.72;100.00;99519.66;5025181;28;20235;-78
2021/12/29 05:32:47;;;;;;;13.82;9.77;;;;;;;10.71;100.00;99512.50;5023789;28;20033;-77
2021/12/29 05:35:14;;;;;;;16.42;8.93;;;;;;;10.73;100.00;99521.25;5024528;28;20022;-77
2021/12/29 05:37:40;;;;;;;14.32;8.43;;;;;;;10.75;100.00;99530.00;5024980;28;20041;-76
2021/12/29 05:40:07;;;;;;;14.05;7.45;;;;;;;10.73;100.00;99540.72;5023351;28;20029;-76
2021/12/29 05:42:36;;;;;;;13.52;7.45;;;;;;;10.69;100.00;99532.34;5022822;28;20018;-76
2021/12/29 05:45:08;;;;;;;12.93;7.78;;;;;;;10.64;100.00;99509.63;5023814;28;20457;-76
2021/12/29 05:47:34;;;;;;;18.73;8.00;;;;;;;10.69;100.00;99503.72;5023038;28;20026;-76
2021/12/29 05:49:59;;;;;;;10.65;6.53;;;;;;;10.73;100.00;99521.25;5022915;28;20037;-76
2021/12/29 05:52:25;;;;;;;10.77;6.80;;;;;;;10.70;100.00;99511.66;5023517;28;20030;-76
2021/12/29 05:54:51;;;;;;;18.10;6.55;;;;;;;10.88;100.00;99500.75;5022766;28;20124;-76
2021/12/29 05:57:16;;;;;;;8.73;6.47;;;;;;;10.73;100.00;99497.00;5022789;28;20097;-76
2021/12/29 05:59:45;;;;;;;12.70;8.15;;;;;;;10.75;100.00;99521.66;5022394;28;20445;-76
2021/12/29 06:02:10;;;;;;;17.45;7.43;;;;;;;10.75;100.00;99524.44;5022809;28;20104;-77
2021/12/29 06:04:36;;;;;;;15.27;8.30;;;;;;;10.71;100.00;99523.63;5023454;28;20030;-77
2021/12/29 06:07:02;;;;;;;18.15;10.48;;;;;;;10.72;100.00;99534.38;5023528;28;20084;-77
2021/12/29 06:09:27;;;;;;;19.80;10.10;;;;;;;10.53;100.00;99517.84;5022548;28;20026;-76
2021/12/29 06:11:55;;;;;;;16.00;9.65;;;;;;;10.71;100.00;99557.81;5022854;28;20431;-77
2021/12/29 06:14:26;;;;;;;23.00;11.50;;;;;;;10.73;100.00;99558.22;5022159;28;20045;-77
2021/12/29 06:16:54;;;;;;;22.77;10.00;;;;;;;10.71;100.00;99551.44;5022089;28;20026;-77
2021/12/29 06:19:20;;;;;;;20.13;10.63;;;;;;;10.73;100.00;99549.88;5021491;28;20029;-76
2021/12/29 06:21:45;;;;;;;16.48;10.18;;;;;;;10.76;100.00;99559.47;5021754;28;20464;-76
2021/12/29 06:24:13;;;;;;;20.83;10.50;;;;;;;10.78;100.00;99551.53;5021907;28;20033;-77
2021/12/29 06:26:42;;;;;;;20.15;9.95;;;;;;;10.71;100.00;99551.44;5020822;28;20060;-76
2021/12/29 06:29:07;;;;;;;18.33;9.38;;;;;;;10.73;100.00;99561.00;5022044;28;20017;-77
2021/12/29 06:31:35;;;;;;;12.88;8.45;;;;;;;10.77;100.00;99547.16;5021182;28;20022;-77
2021/12/29 06:34:06;;;;;;;14.85;8.93;;;;;;;10.80;100.00;99551.94;5019907;28;20025;-77
2021/12/29 06:36:32;;;;;;;17.02;9.40;;;;;;;10.83;100.00;99562.31;5019860;28;20037;-76
2021/12/29 06:38:57;;;;;;;22.33;9.95;;;;;;;10.84;100.00;99552.78;5022167;28;20026;-77
2021/12/29 06:41:23;;;;;;;17.23;9.25;;;;;;;10.82;100.00;99557.16;5022404;28;20029;-77
2021/12/29 06:43:49;;;;;;;14.13;8.68;;;;;;;10.85;100.00;99579.44;5022935;28;20028;-77
2021/12/29 06:46:16;;;;;;;37.50;21.42;;;;;;;10.84;100.00;99577.03;5021401;28;20017;-77
2021/12/29 06:48:45;;;;;;;27.48;18.95;;;;;;;10.91;100.00;99580.69;5021891;28;20018;-76
2021/12/29 06:51:10;;;;;;;33.20;22.00;;;;;;;10.95;100.00;99567.63;5022185;28;20022;-77
2021/12/29 06:53:36;;;;;;;37.97;26.38;;;;;;;10.96;100.00;99566.44;5021717;28;20144;-77
2021/12/29 06:56:02;;;;;;;34.65;21.35;;;;;;;10.92;100.00;99557.28;5022560;28;20081;-77
2021/12/29 06:58:30;;;;;;;31.13;20.20;;;;;;;10.92;100.00;99546.13;5024321;28;20029;-77
2021/12/29 07:00:59;;;;;;;32.83;18.42;;;;;;;10.99;100.00;99556.53;5021912;28;20025;-76
2021/12/29 07:03:26;;;;;;;23.85;17.52;;;;;;;11.06;100.00;99569.72;5022918;28;20049;-78
2021/12/29 07:05:54;;;;;;;22.17;14.90;;;;;;;11.16;100.00;99574.63;5022485;28;20121;-77
2021/12/29 07:08:23;;;;;;;19.33;10.27;;;;;;;11.35;100.00;99571.66;5022972;28;20034;-78
2021/12/29 07:10:49;;;;;;;21.05;9.38;;;;;;;11.67;100.00;99569.16;5023247;28;20061;-77
2021/12/29 07:13:15;;;;;;;15.63;9.63;;;;;;;11.91;98.86;99584.50;5022754;28;20037;-77
2021/12/29 07:15:41;;;;;;;13.23;9.35;;;;;;;12.59;96.73;99582.94;5021529;28;20421;-77
2021/12/29 07:18:13;;;;;;;14.10;9.27;;;;;;;13.22;93.00;99578.03;5022487;28;20030;-77
2021/12/29 07:20:39;;;;;;;15.45;8.50;;;;;;;13.58;89.68;99583.66;5021662;28;20034;-76
2021/12/29 07:23:07;;;;;;;13.90;8.48;;;;;;;14.12;86.05;99596.47;5022417;28;20527;-77
2021/12/29 07:25:36;;;;;;;14.38;7.00;;;;;;;14.69;82.83;99584.38;5022905;28;20098;-77
2021/12/29 07:28:04;;;;;;;18.58;11.52;;;;;;;15.37;79.29;99584.84;5020870;28;20040;-78
2021/12/29 07:30:30;;;;;;;29.55;20.33;;;;;;;15.79;76.61;99599.81;5019476;28;20030;-78
2021/12/29 07:32:55;;;;;;;28.70;18.77;;;;;;;16.35;72.75;99592.13;5020276;28;20030;-78
2021/12/29 07:35:21;;;;;;;21.30;13.63;;;;;;;16.03;71.26;99595.22;5020095;28;20453;-81
2021/12/29 07:37:47;;;;;;;17.13;12.48;;;;;;;15.67;73.10;99598.31;5020209;28;20034;-77
2021/12/29 07:40:16;;;;;;;16.42;11.18;;;;;;;15.46;73.69;99584.41;5021324;28;20073;-76
2021/12/29 07:42:43;;;;;;;25.70;14.45;;;;;;;15.92;73.21;99608.53;5017924;28;20482;-77
2021/12/29 07:45:10;;;;;;;19.08;13.80;;;;;;;16.44;70.58;99597.25;5016315;28;20030;-78
2021/12/29 07:47:49;;;;;;;16.23;9.93;;;;;;;16.23;70.62;99582.19;5014549;28;20072;-77
2021/12/29 07:50:16;;;;;;;10.23;6.13;;;;;;;16.33;69.06;99590.94;5014712;28;20357;-77
2021/12/29 07:52:47;;;;;;;5.65;4.25;;;;;;;16.52;66.21;99590.34;5013685;28;20029;-76
2021/12/29 07:55:16;;;;;;;6.45;3.97;;;;;;;17.25;65.55;99587.06;5013091;28;20026;-76
2021/12/29 07:57:45;;;;;;;7.03;4.55;;;;;;;17.79;63.10;99584.28;5013794;28;20032;-78
2021/12/29 08:00:12;;;;;;;15.63;10.10;;;;;;;18.30;63.23;99582.19;5012002;28;20021;-76
2021/12/29 08:02:43;;;;;;;14.80;8.60;;;;;;;18.99;61.74;99598.63;5013242;28;20054;-78
2021/12/29 08:05:10;;;;;;;9.38;7.28;;;;;;;19.13;59.48;99584.25;5017215;28;20028;-76
2021/12/29 08:07:35;;;;;;;14.10;6.20;;;;;;;19.18;58.10;99594.22;5015353;28;20026;-74
2021/12/29 08:10:01;;;;;;;9.50;6.55;;;;;;;19.56;58.49;99591.75;5015552;28;20018;-77
2021/12/29 08:12:27;;;;;;;10.32;6.32;;;;;;;19.86;57.06;99599.09;5015434;28;20064;-77
2021/12/29 08:14:53;;;;;;;10.30;6.43;;;;;;;19.93;56.34;99601.78;5016524;28;20030;-76
2021/12/29 08:17:19;;;;;;;11.50;4.57;;;;;;;19.93;56.00;99609.47;5015363;28;20033;-76
2021/12/29 08:19:47;;;;;;;7.63;4.63;;;;;;;20.26;55.49;99601.75;5014790;28;20061;-76
2021/12/29 08:22:15;;;;;;;10.80;4.57;;;;;;;20.46;54.17;99618.59;5015185;28;20034;-77
2021/12/29 08:24:40;;;;;;;7.95;3.28;;;;;;;20.56;53.31;99595.75;5015245;28;20033;-75
2021/12/29 08:27:09;;;;;;;9.20;4.30;;;;;;;21.00;52.02;99615.13;5015114;28;20034;-77
2021/12/29 08:29:35;;;;;;;10.63;5.10;;;;;;;20.30;53.18;99617.38;5016216;28;20040;-75
2021/12/29 08:32:04;;;;;;;7.70;4.03;;;;;;;19.63;53.30;99620.59;5015573;28;20405;-75
2021/12/29 08:34:32;;;;;;;13.73;4.72;;;;;;;19.90;52.65;99628.06;5015615;28;20360;-76
2021/12/29 08:37:00;;;;;;;8.90;3.30;;;;;;;20.73;52.11;99626.78;5015282;28;20030;-74
2021/12/29 08:39:28;;;;;;;8.75;2.95;;;;;;;20.88;51.74;99634.44;5015043;28;20021;-78
2021/12/29 08:41:54;;;;;;;8.60;3.75;;;;;;;20.73;51.63;99641.72;5015139;28;20168;-77
2021/12/29 08:44:20;;;;;;;6.50;3.95;;;;;;;19.86;53.78;99630.16;5015217;28;20113;-75
2021/12/29 08:46:47;;;;;;;9.10;4.93;;;;;;;19.70;54.16;99644.25;5015577;28;20410;-74
2021/12/29 08:49:18;;;;;;;8.25;4.13;;;;;;;19.88;54.75;99651.09;5016304;28;20068;-75
2021/12/29 08:51:43;;;;;;;6.55;3.97;;;;;;;20.09;54.75;99651.81;5015936;28;20102;-75
2021/12/29 08:54:13;;;;;;;6.80;3.10;;;;;;;20.26;52.32;99650.56;5014997;28;20045;-76
2021/12/29 08:56:41;;;;;;;7.13;3.17;;;;;;;20.06;51.72;99647.03;5014852;28;20028;-74
2021/12/29 08:59:06;;;;;;;10.25;4.40;;;;;;;20.57;51.76;99661.53;5015036;28;20029;-74
2021/12/29 09:01:32;;;;;;;12.48;2.67;;;;;;;20.29;52.70;99660.97;5016181;28;20036;-76
2021/12/29 09:04:00;;;;;;;5.63;2.80;;;;;;;20.23;53.30;99661.94;5013903;28;20056;-73
2021/12/29 09:06:28;;;;;;;8.32;4.50;;;;;;;20.06;53.50;99659.13;5014836;28;20088;-75
2021/12/29 09:08:54;;;;;;;7.88;3.00;;;;;;;20.24;53.97;99667.19;5015585;28;20349;-75
2021/12/29 09:11:21;;;;;;;30.00;6.63;;;;;;;20.22;53.15;99666.00;5013799;28;20124;-74
2021/12/29 09:13:46;;;;;;;9.70;3.58;;;;;;;20.34;53.39;99674.56;5014460;28;20420;-73
2021/12/29 09:16:12;;;;;;;6.95;3.97;;;;;;;20.41;51.39;99671.59;5014691;28;20076;-74
2021/12/29 09:18:38;;;;;;;13.73;5.72;;;;;;;20.34;53.42;99668.91;5014592;28;20030;-73
2021/12/29 09:21:10;;;;;;;8.45;4.53;;;;;;;20.20;54.05;99666.47;5015161;28;20025;-74
2021/12/29 09:23:36;;;;;;;11.90;4.97;;;;;;;20.52;53.27;99670.53;5013811;28;20029;-78
2021/12/29 09:26:02;;;;;;;8.15;3.83;;;;;;;20.86;52.63;99676.47;5013466;28;20021;-73
2021/12/29 09:28:28;;;;;;;8.02;3.10;;;;;;;20.99;52.40;99670.09;5015357;28;20109;-74
2021/12/29 09:30:57;;;;;;;6.13;4.00;;;;;;;21.36;50.41;99660.97;5015110;28;20104;-75
2021/12/29 09:33:23;;;;;;;16.90;8.05;;;;;;;21.08;50.17;99653.25;5013642;28;20488;-75
2021/12/29 09:35:57;;;;;;;8.60;4.03;;;;;;;20.85;51.73;99657.94;5013567;28;20030;-75
2021/12/29 09:38:23;;;;;;;12.35;4.15;;;;;;;20.03;53.74;99665.66;5013842;28;20037;-74
2021/12/29 09:40:58;;;;;;;9.25;3.33;;;;;;;19.80;54.45;99666.59;5013877;28;20026;-75
2021/12/29 09:43:28;;;;;;;8.65;2.50;;;;;;;19.66;54.84;99663.31;5013883;28;20453;-74
2021/12/29 09:45:54;;;;;;;6.70;4.28;;;;;;;19.80;55.26;99660.94;5013708;28;20045;-74
2021/12/29 09:48:23;;;;;;;9.00;3.70;;;;;;;20.25;53.91;99665.16;5013724;28;20083;-74
2021/12/29 09:50:49;;;;;;;4.82;2.92;;;;;;;20.09;53.30;99658.25;5015259;28;20026;-74
2021/12/29 09:53:16;;;;;;;6.57;4.10;;;;;;;20.10;53.05;99659.03;5014427;28;20018;-74
2021/12/29 09:55:44;;;;;;;7.32;2.85;;;;;;;19.87;54.84;99651.53;5013377;28;20018;-74
2021/12/29 09:58:10;;;;;;;10.07;3.90;;;;;;;20.04;55.18;99653.13;5014024;28;20042;-74
2021/12/29 10:00:41;;;;;;;8.65;4.18;;;;;;;20.26;53.01;99656.22;5013529;28;20457;-74
2021/12/29 10:03:09;;;;;;;10.60;6.25;;;;;;;19.34;56.76;99657.09;5013151;28;20491;-74
2021/12/29 10:05:37;;;;;;;6.25;4.80;;;;;;;19.34;57.15;99651.47;5013939;28;20342;-74
2021/12/29 10:08:09;;;;;;;7.95;4.53;;;;;;;19.69;56.94;99645.50;5013329;28;20030;-74
2021/12/29 10:10:38;;;;;;;10.75;4.68;;;;;;;20.16;54.29;99651.63;5013217;28;20117;-74
2021/12/29 10:13:06;;;;;;;14.65;3.60;;;;;;;20.63;52.37;99640.75;5013498;28;20030;-74
2021/12/29 10:15:41;;;;;;;8.18;4.10;;;;;;;20.96;52.12;99632.19;5013676;28;20025;-74
2021/12/29 10:18:09;;;;;;;14.18;5.30;;;;;;;20.70;52.94;99638.97;5013216;28;20084;-74
2021/12/29 10:20:45;;;;;;;11.35;5.60;;;;;;;19.95;54.38;99621.09;5012677;28;20088;-74
2021/12/29 10:23:20;;;;;;;9.20;4.35;;;;;;;20.65;53.55;99626.97;5013432;28;20029;-74
2021/12/29 10:25:48;;;;;;;9.65;4.38;;;;;;;21.03;51.75;99634.00;5014292;28;20117;-74
2021/12/29 10:28:23;;;;;;;10.95;4.18;;;;;;;20.44;53.27;99635.19;5016287;28;20069;-74
2021/12/29 10:31:08;;;;;;;9.52;3.35;;;;;;;19.59;55.10;99627.56;5013379;28;20036;-74
2021/12/29 10:33:37;;;;;;;4.32;3.10;;;;;;;19.97;53.89;99621.44;5013009;28;20025;-74
2021/12/29 10:36:25;;;;;;;12.80;4.63;;;;;;;20.16;54.08;99631.88;5012754;28;20026;-74
2021/12/29 10:38:58;;;;;;;10.25;3.70;;;;;;;20.56;51.99;99634.47;5012531;28;20160;-74
2021/12/29 10:41:26;;;;;;;17.02;4.00;;;;;;;20.19;54.41;99628.16;5014382;28;20033;-75
2021/12/29 10:44:07;;;;;;;6.70;3.22;;;;;;;19.62;56.98;99607.75;5012202;28;20137;-74
2021/12/29 10:46:33;;;;;;;6.35;3.72;;;;;;;20.41;54.43;99623.53;5013234;28;20025;-74
2021/12/29 10:49:06;;;;;;;9.30;3.70;;;;;;;19.62;56.96;99615.41;5011751;28;20068;-75
2021/12/29 10:51:34;;;;;;;7.38;4.18;;;;;;;19.05;58.18;99613.81;5011964;28;20033;-74
2021/12/29 10:54:15;;;;;;;8.38;4.20;;;;;;;19.64;57.81;99621.41;5011542;28;20480;-77
2021/12/29 10:56:45;;;;;;;11.52;4.70;;;;;;;19.94;56.08;99619.50;5013135;28;20117;-73
2021/12/29 10:59:13;;;;;;;8.55;3.40;;;;;;;19.84;56.27;99622.13;5011383;28;20034;-73
2021/12/29 11:01:39;;;;;;;7.18;3.42;;;;;;;19.35;57.61;99616.38;5011458;28;20061;-74
2021/12/29 11:04:05;;;;;;;8.93;3.47;;;;;;;19.19;58.33;99619.16;5011199;28;20459;-73
2021/12/29 11:06:30;;;;;;;7.97;2.90;;;;;;;19.09;58.58;99626.59;5011804;28;20117;-72
2021/12/29 11:09:01;;;;;;;7.85;3.78;;;;;;;19.12;58.41;99613.66;5012112;28;20120;-73
2021/12/29 11:11:36;;;;;;;5.50;3.45;;;;;;;18.67;59.91;99608.47;5028284;28;20033;-71
2021/12/29 11:14:10;;;;;;;12.43;4.30;;;;;;;18.64;60.33;99611.34;5011931;28;20469;-73
2021/12/29 11:16:37;;;;;;;8.25;4.45;;;;;;;18.80;60.64;99619.94;5012295;28;20062;-72
2021/12/29 11:19:03;;;;;;;13.30;6.72;;;;;;;18.97;60.31;99623.66;5012790;28;20084;-71
2021/12/29 11:21:31;;;;;;;10.38;6.28;;;;;;;18.73;60.24;99603.16;5012069;28;20457;-74
2021/12/29 11:24:17;;;;;;;12.27;4.78;;;;;;;18.96;61.48;99599.47;5012486;28;20095;-73
2021/12/29 11:26:44;;;;;;;9.15;3.15;;;;;;;19.56;58.04;99601.00;5013787;28;20075;-72
2021/12/29 11:29:15;;;;;;;6.35;2.88;;;;;;;19.18;58.62;99592.19;5012254;28;20022;-75